OAL929 HRYR-FNLU
Flight info
| Callsign | OAL929 |
|---|---|
| Flight time | 2h 31m |
| Altitude | 38000 |
| Route | NESID T129 RERUS UM313 ALRAN UT400 DUNRI |
| Aircraft | B738/M-V/N |
Departure
| Time | 2026-05-07 17:14 |
|---|---|
| Airport | Kigali International Airport (HRYR) |
Arrival
| Time | 2026-05-07 19:46 |
|---|---|
| Airport | Quatro de Fevereiro International Airport (FNLU) |
| Time | Latitude | Longitude | Altitude | Speed | Heading |
|---|---|---|---|---|---|
| 2026-05-07 17:04 | -1.97091 | 30.15234 | 4882 ft | 0 kts | 280° |
| 2026-05-07 17:13 | -1.97091 | 30.15232 | 4882 ft | 5 kts | 280° |
| 2026-05-07 17:14 | -1.97044 | 30.14969 | 4883 ft | 75 kts | 280° |
| 2026-05-07 17:14 | -1.96911 | 30.14208 | 4884 ft | 141 kts | 280° |
| 2026-05-07 17:14 | -1.96709 | 30.13053 | 4939 ft | 191 kts | 280° |
| 2026-05-07 17:14 | -1.96499 | 30.11800 | 5971 ft | 178 kts | 278° |
| 2026-05-07 17:15 | -1.96626 | 30.10529 | 6609 ft | 192 kts | 249° |
| 2026-05-07 17:15 | -1.97090 | 30.09173 | 6903 ft | 220 kts | 252° |
| 2026-05-07 17:15 | -1.97538 | 30.07629 | 7067 ft | 242 kts | 254° |
| 2026-05-07 17:15 | -1.98012 | 30.05935 | 7225 ft | 265 kts | 254° |
| 2026-05-07 17:16 | -1.98525 | 30.04085 | 7489 ft | 285 kts | 254° |
| 2026-05-07 17:16 | -1.99059 | 30.02152 | 8105 ft | 291 kts | 254° |
| 2026-05-07 17:16 | -1.99599 | 30.00195 | 8810 ft | 293 kts | 254° |
| 2026-05-07 17:16 | -2.00143 | 29.98219 | 9524 ft | 296 kts | 254° |
| 2026-05-07 17:17 | -2.00691 | 29.96226 | 10223 ft | 299 kts | 254° |
| 2026-05-07 17:17 | -2.01253 | 29.94181 | 10608 ft | 315 kts | 254° |
| 2026-05-07 17:17 | -2.01855 | 29.91991 | 10748 ft | 337 kts | 254° |
| 2026-05-07 17:17 | -2.02496 | 29.89663 | 10892 ft | 357 kts | 254° |
| 2026-05-07 17:18 | -2.03171 | 29.87208 | 11045 ft | 375 kts | 254° |
| 2026-05-07 17:18 | -2.03870 | 29.84663 | 11428 ft | 383 kts | 254° |
| 2026-05-07 17:18 | -2.04579 | 29.82084 | 11974 ft | 386 kts | 254° |
| 2026-05-07 17:18 | -2.05290 | 29.79492 | 12541 ft | 388 kts | 254° |
| 2026-05-07 17:19 | -2.06010 | 29.76874 | 13057 ft | 392 kts | 254° |
| 2026-05-07 17:19 | -2.06737 | 29.74227 | 13564 ft | 396 kts | 255° |
| 2026-05-07 17:19 | -2.07465 | 29.71577 | 14050 ft | 400 kts | 255° |
| 2026-05-07 17:19 | -2.08204 | 29.68887 | 14514 ft | 403 kts | 255° |
| 2026-05-07 17:20 | -2.08949 | 29.66175 | 14983 ft | 405 kts | 255° |
| 2026-05-07 17:20 | -2.09695 | 29.63458 | 15449 ft | 407 kts | 255° |
| 2026-05-07 17:20 | -2.10444 | 29.60731 | 15912 ft | 409 kts | 255° |
| 2026-05-07 17:20 | -2.11198 | 29.57985 | 16338 ft | 412 kts | 255° |
| 2026-05-07 17:21 | -2.11962 | 29.55203 | 16765 ft | 415 kts | 255° |
| 2026-05-07 17:21 | -2.12727 | 29.52415 | 17166 ft | 418 kts | 255° |
| 2026-05-07 17:21 | -2.13498 | 29.49608 | 17574 ft | 421 kts | 255° |
| 2026-05-07 17:21 | -2.14273 | 29.46786 | 17989 ft | 423 kts | 255° |
| 2026-05-07 17:22 | -2.15056 | 29.43934 | 18377 ft | 426 kts | 255° |
| 2026-05-07 17:22 | -2.15843 | 29.41065 | 18713 ft | 429 kts | 255° |
| 2026-05-07 17:22 | -2.16633 | 29.38185 | 19045 ft | 431 kts | 255° |
| 2026-05-07 17:22 | -2.17427 | 29.35293 | 19388 ft | 433 kts | 255° |
| 2026-05-07 17:23 | -2.18222 | 29.32394 | 19737 ft | 435 kts | 255° |
| 2026-05-07 17:23 | -2.19024 | 29.29474 | 20063 ft | 437 kts | 255° |
| 2026-05-07 17:23 | -2.19830 | 29.26536 | 20391 ft | 439 kts | 255° |
| 2026-05-07 17:23 | -2.20620 | 29.23585 | 20717 ft | 441 kts | 255° |
| 2026-05-07 17:24 | -2.21388 | 29.20633 | 21027 ft | 443 kts | 255° |
| 2026-05-07 17:24 | -2.22167 | 29.17611 | 21350 ft | 444 kts | 255° |
| 2026-05-07 17:24 | -2.22937 | 29.14620 | 21660 ft | 446 kts | 255° |
| 2026-05-07 17:24 | -2.23712 | 29.11616 | 21958 ft | 448 kts | 255° |
| 2026-05-07 17:25 | -2.24493 | 29.08601 | 22265 ft | 449 kts | 255° |
| 2026-05-07 17:25 | -2.25281 | 29.05566 | 22563 ft | 451 kts | 255° |
| 2026-05-07 17:25 | -2.26069 | 29.02530 | 22841 ft | 453 kts | 255° |
| 2026-05-07 17:25 | -2.26861 | 28.99484 | 23097 ft | 455 kts | 255° |
| 2026-05-07 17:26 | -2.27658 | 28.96417 | 23350 ft | 457 kts | 255° |
| 2026-05-07 17:26 | -2.28455 | 28.93348 | 23605 ft | 459 kts | 255° |
| 2026-05-07 17:26 | -2.29258 | 28.90256 | 23820 ft | 461 kts | 255° |
| 2026-05-07 17:26 | -2.30063 | 28.87156 | 24028 ft | 462 kts | 255° |
| 2026-05-07 17:27 | -2.30871 | 28.84046 | 24236 ft | 464 kts | 255° |
| 2026-05-07 17:27 | -2.31681 | 28.80925 | 24433 ft | 466 kts | 255° |
| 2026-05-07 17:27 | -2.32439 | 28.77737 | 24643 ft | 467 kts | 257° |
| 2026-05-07 17:27 | -2.33101 | 28.74560 | 24852 ft | 469 kts | 258° |
| 2026-05-07 17:28 | -2.33729 | 28.71386 | 25020 ft | 471 kts | 258° |
| 2026-05-07 17:28 | -2.34368 | 28.68129 | 25208 ft | 472 kts | 258° |
| 2026-05-07 17:28 | -2.35008 | 28.64917 | 25438 ft | 473 kts | 258° |
| 2026-05-07 17:28 | -2.35659 | 28.61701 | 25651 ft | 473 kts | 258° |
| 2026-05-07 17:29 | -2.36319 | 28.58484 | 25839 ft | 475 kts | 258° |
| 2026-05-07 17:29 | -2.36987 | 28.55251 | 26008 ft | 476 kts | 258° |
| 2026-05-07 17:29 | -2.37660 | 28.52011 | 26189 ft | 477 kts | 258° |
| 2026-05-07 17:29 | -2.38334 | 28.48766 | 26359 ft | 479 kts | 258° |
| 2026-05-07 17:30 | -2.39021 | 28.45457 | 26520 ft | 480 kts | 258° |
| 2026-05-07 17:30 | -2.39698 | 28.42190 | 26681 ft | 482 kts | 258° |
| 2026-05-07 17:30 | -2.40378 | 28.38912 | 26831 ft | 483 kts | 258° |
| 2026-05-07 17:30 | -2.41058 | 28.35626 | 26983 ft | 484 kts | 258° |
| 2026-05-07 17:31 | -2.41741 | 28.32332 | 27142 ft | 485 kts | 258° |
| 2026-05-07 17:31 | -2.42422 | 28.29039 | 27299 ft | 486 kts | 258° |
| 2026-05-07 17:31 | -2.43108 | 28.25724 | 27450 ft | 488 kts | 258° |
| 2026-05-07 17:31 | -2.43795 | 28.22403 | 27586 ft | 489 kts | 258° |
| 2026-05-07 17:32 | -2.44486 | 28.19068 | 27731 ft | 490 kts | 258° |
| 2026-05-07 17:32 | -2.45176 | 28.15730 | 27875 ft | 491 kts | 258° |
| 2026-05-07 17:32 | -2.45868 | 28.12385 | 28024 ft | 492 kts | 258° |
| 2026-05-07 17:32 | -2.46327 | 28.10167 | 28129 ft | 492 kts | 258° |
| 2026-05-07 17:33 | -2.47254 | 28.05688 | 28449 ft | 491 kts | 258° |
| 2026-05-07 17:33 | -2.47945 | 28.02356 | 28714 ft | 489 kts | 258° |
| 2026-05-07 17:33 | -2.48636 | 27.99027 | 28949 ft | 488 kts | 258° |
| 2026-05-07 17:33 | -2.49327 | 27.95702 | 29125 ft | 489 kts | 258° |
| 2026-05-07 17:34 | -2.50018 | 27.92372 | 29298 ft | 489 kts | 258° |
| 2026-05-07 17:34 | -2.50708 | 27.89044 | 29522 ft | 489 kts | 258° |
| 2026-05-07 17:34 | -2.51398 | 27.85718 | 29791 ft | 487 kts | 257° |
| 2026-05-07 17:34 | -2.52084 | 27.82406 | 30034 ft | 486 kts | 257° |
| 2026-05-07 17:35 | -2.52771 | 27.79093 | 30206 ft | 486 kts | 258° |
| 2026-05-07 17:35 | -2.53457 | 27.75781 | 30362 ft | 487 kts | 258° |
| 2026-05-07 17:35 | -2.54144 | 27.72467 | 30559 ft | 486 kts | 258° |
| 2026-05-07 17:35 | -2.54829 | 27.69161 | 30790 ft | 485 kts | 258° |
| 2026-05-07 17:36 | -2.55510 | 27.65869 | 31029 ft | 483 kts | 258° |
| 2026-05-07 17:36 | -2.56192 | 27.62578 | 31236 ft | 483 kts | 258° |
| 2026-05-07 17:36 | -2.56864 | 27.59331 | 31416 ft | 483 kts | 258° |
| 2026-05-07 17:36 | -2.57545 | 27.56045 | 31613 ft | 483 kts | 258° |
| 2026-05-07 17:37 | -2.58225 | 27.52760 | 31843 ft | 481 kts | 258° |
| 2026-05-07 17:37 | -2.58902 | 27.49487 | 32087 ft | 480 kts | 258° |
| 2026-05-07 17:37 | -2.59580 | 27.46212 | 32303 ft | 480 kts | 258° |
| 2026-05-07 17:37 | -2.60255 | 27.42950 | 32482 ft | 480 kts | 258° |
| 2026-05-07 17:38 | -2.60932 | 27.39679 | 32673 ft | 480 kts | 258° |
| 2026-05-07 17:38 | -2.61607 | 27.36416 | 32904 ft | 479 kts | 258° |
| 2026-05-07 17:38 | -2.62280 | 27.33165 | 33156 ft | 477 kts | 258° |
| 2026-05-07 17:38 | -2.62952 | 27.29914 | 33388 ft | 476 kts | 258° |
| 2026-05-07 17:39 | -2.63623 | 27.26672 | 33594 ft | 476 kts | 258° |
| 2026-05-07 17:39 | -2.64292 | 27.23438 | 33819 ft | 475 kts | 258° |
| 2026-05-07 17:39 | -2.64959 | 27.20209 | 34051 ft | 473 kts | 258° |
| 2026-05-07 17:39 | -2.65625 | 27.16990 | 34272 ft | 472 kts | 258° |
| 2026-05-07 17:40 | -2.66280 | 27.13818 | 34456 ft | 472 kts | 258° |
| 2026-05-07 17:40 | -2.66944 | 27.10608 | 34623 ft | 472 kts | 258° |
| 2026-05-07 17:40 | -2.67608 | 27.07395 | 34804 ft | 471 kts | 258° |
| 2026-05-07 17:40 | -2.68269 | 27.04192 | 35017 ft | 470 kts | 258° |
| 2026-05-07 17:41 | -2.68930 | 27.00996 | 35208 ft | 469 kts | 258° |
| 2026-05-07 17:41 | -2.69591 | 26.97795 | 35348 ft | 470 kts | 258° |
| 2026-05-07 17:41 | -2.70252 | 26.94591 | 35473 ft | 471 kts | 258° |
| 2026-05-07 17:41 | -2.70915 | 26.91383 | 35651 ft | 470 kts | 258° |
| 2026-05-07 17:42 | -2.71575 | 26.88184 | 35863 ft | 469 kts | 258° |
| 2026-05-07 17:42 | -2.72235 | 26.84988 | 36043 ft | 469 kts | 258° |
| 2026-05-07 17:42 | -2.72895 | 26.81791 | 36162 ft | 469 kts | 258° |
| 2026-05-07 17:42 | -2.73555 | 26.78591 | 36293 ft | 470 kts | 258° |
| 2026-05-07 17:43 | -2.74215 | 26.75391 | 36478 ft | 469 kts | 258° |
| 2026-05-07 17:43 | -2.74873 | 26.72202 | 36690 ft | 468 kts | 259° |
| 2026-05-07 17:43 | -2.75531 | 26.69014 | 36836 ft | 467 kts | 259° |
| 2026-05-07 17:43 | -2.76188 | 26.65828 | 36948 ft | 468 kts | 259° |
| 2026-05-07 17:44 | -2.76846 | 26.62635 | 37071 ft | 469 kts | 259° |
| 2026-05-07 17:44 | -2.77500 | 26.59448 | 37243 ft | 468 kts | 259° |
| 2026-05-07 17:44 | -2.78150 | 26.56265 | 37418 ft | 467 kts | 259° |
| 2026-05-07 17:44 | -2.78799 | 26.53086 | 37545 ft | 467 kts | 259° |
| 2026-05-07 17:45 | -2.80100 | 26.46714 | 37770 ft | 468 kts | 259° |
| 2026-05-07 17:45 | -2.81402 | 26.40332 | 37845 ft | 470 kts | 259° |
| 2026-05-07 17:46 | -2.82486 | 26.35024 | 37885 ft | 468 kts | 259° |
| 2026-05-07 17:46 | -2.83789 | 26.28643 | 37887 ft | 467 kts | 259° |
| 2026-05-07 17:47 | -2.85087 | 26.22283 | 37883 ft | 466 kts | 259° |
| 2026-05-07 17:47 | -2.86382 | 26.15935 | 37867 ft | 465 kts | 259° |
| 2026-05-07 17:48 | -2.87674 | 26.09599 | 37883 ft | 464 kts | 259° |
| 2026-05-07 17:48 | -2.88963 | 26.03274 | 37874 ft | 464 kts | 259° |
| 2026-05-07 17:49 | -2.90249 | 25.96963 | 37870 ft | 463 kts | 259° |
| 2026-05-07 17:49 | -2.91553 | 25.90662 | 37866 ft | 463 kts | 256° |
| 2026-05-07 17:50 | -2.93810 | 25.84675 | 38064 ft | 458 kts | 246° |
| 2026-05-07 17:50 | -2.95114 | 25.81761 | 37859 ft | 463 kts | 246° |
| 2026-05-07 17:50 | -2.96444 | 25.78779 | 37941 ft | 461 kts | 246° |
| 2026-05-07 17:51 | -2.99011 | 25.72934 | 37878 ft | 463 kts | 246° |
| 2026-05-07 17:51 | -3.01584 | 25.66982 | 37859 ft | 464 kts | 247° |
| 2026-05-07 17:52 | -3.04115 | 25.61094 | 37835 ft | 465 kts | 247° |
| 2026-05-07 17:52 | -3.06682 | 25.55119 | 37845 ft | 466 kts | 247° |
| 2026-05-07 17:53 | -3.09232 | 25.49188 | 37872 ft | 466 kts | 247° |
| 2026-05-07 17:53 | -3.11789 | 25.43242 | 37907 ft | 465 kts | 247° |
| 2026-05-07 17:54 | -3.14353 | 25.37278 | 37897 ft | 466 kts | 247° |
| 2026-05-07 17:54 | -3.16918 | 25.31310 | 37853 ft | 467 kts | 247° |
| 2026-05-07 17:55 | -3.19461 | 25.25392 | 37827 ft | 468 kts | 247° |
| 2026-05-07 17:55 | -3.22039 | 25.19391 | 37886 ft | 466 kts | 247° |
| 2026-05-07 17:56 | -3.24588 | 25.13458 | 37918 ft | 465 kts | 247° |
| 2026-05-07 17:56 | -3.27145 | 25.07505 | 37900 ft | 466 kts | 247° |
| 2026-05-07 17:57 | -3.29291 | 25.02507 | 37848 ft | 467 kts | 247° |
| 2026-05-07 17:57 | -3.32260 | 24.95592 | 37861 ft | 466 kts | 247° |
| 2026-05-07 17:58 | -3.34820 | 24.89627 | 37852 ft | 467 kts | 247° |
| 2026-05-07 17:58 | -3.37392 | 24.83635 | 37868 ft | 467 kts | 247° |
| 2026-05-07 17:59 | -3.39955 | 24.77662 | 37885 ft | 467 kts | 247° |
| 2026-05-07 17:59 | -3.42511 | 24.71704 | 37889 ft | 467 kts | 247° |
| 2026-05-07 18:00 | -3.45077 | 24.65720 | 37872 ft | 468 kts | 247° |
| 2026-05-07 18:00 | -3.47645 | 24.59731 | 37878 ft | 468 kts | 247° |
| 2026-05-07 18:01 | -3.50205 | 24.53762 | 37890 ft | 469 kts | 247° |
| 2026-05-07 18:01 | -3.52772 | 24.47773 | 37874 ft | 470 kts | 247° |
| 2026-05-07 18:02 | -3.56638 | 24.38750 | 37889 ft | 470 kts | 247° |
| 2026-05-07 18:03 | -3.59234 | 24.32689 | 37882 ft | 471 kts | 247° |
| 2026-05-07 18:03 | -3.61812 | 24.26670 | 37894 ft | 472 kts | 247° |
| 2026-05-07 18:04 | -3.64356 | 24.20605 | 37885 ft | 473 kts | 248° |
| 2026-05-07 18:04 | -3.66795 | 24.14507 | 37885 ft | 473 kts | 249° |
| 2026-05-07 18:05 | -3.69228 | 24.08403 | 37897 ft | 473 kts | 249° |
| 2026-05-07 18:05 | -3.71676 | 24.02296 | 37891 ft | 474 kts | 248° |
| 2026-05-07 18:06 | -3.74148 | 23.96149 | 37893 ft | 474 kts | 248° |
| 2026-05-07 18:06 | -3.76603 | 23.90049 | 37895 ft | 473 kts | 248° |
| 2026-05-07 18:07 | -3.79063 | 23.83932 | 37888 ft | 473 kts | 248° |
| 2026-05-07 18:07 | -3.81516 | 23.77831 | 37892 ft | 472 kts | 248° |
| 2026-05-07 18:08 | -3.83952 | 23.71771 | 37893 ft | 471 kts | 248° |
| 2026-05-07 18:08 | -3.86389 | 23.65705 | 37888 ft | 470 kts | 248° |
| 2026-05-07 18:09 | -3.88825 | 23.59642 | 37892 ft | 468 kts | 248° |
| 2026-05-07 18:09 | -3.91247 | 23.53613 | 37892 ft | 467 kts | 248° |
| 2026-05-07 18:10 | -3.93674 | 23.47568 | 37888 ft | 466 kts | 248° |
| 2026-05-07 18:10 | -3.96084 | 23.41565 | 37891 ft | 465 kts | 248° |
| 2026-05-07 18:11 | -3.98498 | 23.35550 | 37890 ft | 464 kts | 248° |
| 2026-05-07 18:11 | -4.00892 | 23.29583 | 37885 ft | 464 kts | 248° |
| 2026-05-07 18:12 | -4.03289 | 23.23607 | 37894 ft | 463 kts | 248° |
| 2026-05-07 18:12 | -4.05855 | 23.17644 | 37878 ft | 464 kts | 244° |
| 2026-05-07 18:13 | -4.08735 | 23.11860 | 37899 ft | 464 kts | 243° |
| 2026-05-07 18:13 | -4.11630 | 23.06137 | 37900 ft | 465 kts | 243° |
| 2026-05-07 18:14 | -4.14524 | 23.00331 | 37882 ft | 466 kts | 243° |
| 2026-05-07 18:14 | -4.17413 | 22.94475 | 37902 ft | 466 kts | 243° |
| 2026-05-07 18:15 | -4.20269 | 22.88670 | 37892 ft | 468 kts | 243° |
| 2026-05-07 18:15 | -4.23135 | 22.82845 | 37889 ft | 469 kts | 243° |
| 2026-05-07 18:16 | -4.26029 | 22.76964 | 37903 ft | 469 kts | 243° |
| 2026-05-07 18:16 | -4.28911 | 22.71108 | 37894 ft | 470 kts | 243° |
| 2026-05-07 18:17 | -4.31788 | 22.65259 | 37896 ft | 470 kts | 243° |
| 2026-05-07 18:17 | -4.34681 | 22.59378 | 37899 ft | 470 kts | 243° |
| 2026-05-07 18:18 | -4.37562 | 22.53520 | 37887 ft | 470 kts | 243° |
| 2026-05-07 18:18 | -4.40447 | 22.47653 | 37899 ft | 469 kts | 243° |
| 2026-05-07 18:19 | -4.43329 | 22.41788 | 37896 ft | 469 kts | 243° |
| 2026-05-07 18:19 | -4.46200 | 22.35945 | 37886 ft | 468 kts | 243° |
| 2026-05-07 18:20 | -4.49077 | 22.30090 | 37900 ft | 467 kts | 243° |
| 2026-05-07 18:20 | -4.51937 | 22.24267 | 37891 ft | 467 kts | 243° |
| 2026-05-07 18:21 | -4.54815 | 22.18405 | 37890 ft | 466 kts | 243° |
| 2026-05-07 18:21 | -4.57672 | 22.12586 | 37903 ft | 465 kts | 243° |
| 2026-05-07 18:22 | -4.60525 | 22.06774 | 37901 ft | 465 kts | 244° |
| 2026-05-07 18:22 | -4.63373 | 22.00968 | 37897 ft | 465 kts | 244° |
| 2026-05-07 18:23 | -4.66232 | 21.95142 | 37903 ft | 465 kts | 244° |
| 2026-05-07 18:23 | -4.69091 | 21.89312 | 37899 ft | 465 kts | 244° |
| 2026-05-07 18:24 | -4.71948 | 21.83485 | 37898 ft | 466 kts | 244° |
| 2026-05-07 18:24 | -4.74800 | 21.77665 | 37907 ft | 466 kts | 244° |
| 2026-05-07 18:25 | -4.77656 | 21.71835 | 37902 ft | 467 kts | 244° |
| 2026-05-07 18:25 | -4.80521 | 21.65990 | 37902 ft | 468 kts | 244° |
| 2026-05-07 18:26 | -4.83394 | 21.60136 | 37908 ft | 468 kts | 244° |
| 2026-05-07 18:26 | -4.86274 | 21.54267 | 37902 ft | 469 kts | 244° |
| 2026-05-07 18:27 | -4.89149 | 21.48405 | 37899 ft | 470 kts | 244° |
| 2026-05-07 18:27 | -4.92037 | 21.42512 | 37906 ft | 470 kts | 244° |
| 2026-05-07 18:28 | -4.94916 | 21.36637 | 37895 ft | 471 kts | 244° |
| 2026-05-07 18:28 | -4.97799 | 21.30753 | 37903 ft | 471 kts | 244° |
| 2026-05-07 18:29 | -5.00683 | 21.24865 | 37902 ft | 471 kts | 244° |
| 2026-05-07 18:29 | -5.03589 | 21.18930 | 37898 ft | 472 kts | 244° |
| 2026-05-07 18:30 | -5.06482 | 21.13020 | 37905 ft | 472 kts | 244° |
| 2026-05-07 18:30 | -5.09365 | 21.07128 | 37907 ft | 472 kts | 244° |
| 2026-05-07 18:31 | -5.12259 | 21.01212 | 37899 ft | 472 kts | 244° |
| 2026-05-07 18:31 | -5.15139 | 20.95324 | 37907 ft | 472 kts | 244° |
| 2026-05-07 18:32 | -5.18036 | 20.89399 | 37921 ft | 472 kts | 244° |
| 2026-05-07 18:32 | -5.20922 | 20.83496 | 37902 ft | 472 kts | 244° |
| 2026-05-07 18:33 | -5.23815 | 20.77575 | 37924 ft | 472 kts | 244° |
| 2026-05-07 18:33 | -5.26713 | 20.71644 | 37912 ft | 472 kts | 244° |
| 2026-05-07 18:34 | -5.29606 | 20.65719 | 37915 ft | 472 kts | 244° |
| 2026-05-07 18:34 | -5.32496 | 20.59800 | 37920 ft | 472 kts | 244° |
| 2026-05-07 18:35 | -5.35381 | 20.53890 | 37905 ft | 473 kts | 244° |
| 2026-05-07 18:35 | -5.38270 | 20.47968 | 37919 ft | 472 kts | 244° |
| 2026-05-07 18:36 | -5.41158 | 20.42047 | 37907 ft | 473 kts | 244° |
| 2026-05-07 18:36 | -5.44037 | 20.36137 | 37925 ft | 472 kts | 244° |
| 2026-05-07 18:37 | -5.46911 | 20.30223 | 37903 ft | 473 kts | 244° |
| 2026-05-07 18:37 | -5.49306 | 20.25292 | 37918 ft | 472 kts | 244° |
| 2026-05-07 18:38 | -5.52182 | 20.19370 | 37925 ft | 472 kts | 244° |
| 2026-05-07 18:38 | -5.55062 | 20.13438 | 37914 ft | 472 kts | 244° |
| 2026-05-07 18:39 | -5.57944 | 20.07500 | 37930 ft | 471 kts | 244° |
| 2026-05-07 18:39 | -5.60823 | 20.01568 | 37921 ft | 471 kts | 244° |
| 2026-05-07 18:40 | -5.63671 | 19.95697 | 37920 ft | 471 kts | 244° |
| 2026-05-07 18:40 | -5.66552 | 19.89756 | 37932 ft | 470 kts | 244° |
| 2026-05-07 18:41 | -5.69412 | 19.83858 | 37923 ft | 470 kts | 244° |
| 2026-05-07 18:41 | -5.72269 | 19.77962 | 37928 ft | 469 kts | 244° |
| 2026-05-07 18:42 | -5.75123 | 19.72072 | 37937 ft | 468 kts | 244° |
| 2026-05-07 18:42 | -5.77961 | 19.66211 | 37930 ft | 468 kts | 244° |
| 2026-05-07 18:43 | -5.80805 | 19.60337 | 37935 ft | 467 kts | 244° |
| 2026-05-07 18:43 | -5.83636 | 19.54487 | 37942 ft | 466 kts | 244° |
| 2026-05-07 18:44 | -5.86465 | 19.48642 | 37936 ft | 466 kts | 244° |
| 2026-05-07 18:44 | -5.89292 | 19.42800 | 37942 ft | 466 kts | 244° |
| 2026-05-07 18:45 | -5.92124 | 19.36945 | 37949 ft | 466 kts | 244° |
| 2026-05-07 18:45 | -5.94955 | 19.31087 | 37941 ft | 466 kts | 244° |
| 2026-05-07 18:46 | -5.97788 | 19.25224 | 37943 ft | 466 kts | 244° |
| 2026-05-07 18:46 | -6.00620 | 19.19361 | 37957 ft | 466 kts | 244° |
| 2026-05-07 18:47 | -6.03453 | 19.13495 | 37949 ft | 467 kts | 244° |
| 2026-05-07 18:47 | -6.06275 | 19.07648 | 37949 ft | 467 kts | 244° |
| 2026-05-07 18:48 | -6.09105 | 19.01782 | 37961 ft | 468 kts | 245° |
| 2026-05-07 18:48 | -6.11955 | 18.95874 | 37950 ft | 468 kts | 245° |
| 2026-05-07 18:49 | -6.14798 | 18.89980 | 37956 ft | 469 kts | 245° |
| 2026-05-07 18:49 | -6.17619 | 18.84127 | 37961 ft | 469 kts | 245° |
| 2026-05-07 18:50 | -6.20463 | 18.78226 | 37951 ft | 469 kts | 245° |
| 2026-05-07 18:50 | -6.23307 | 18.72323 | 37963 ft | 469 kts | 245° |
| 2026-05-07 18:51 | -6.26149 | 18.66419 | 37965 ft | 469 kts | 245° |
| 2026-05-07 18:51 | -6.28996 | 18.60507 | 37954 ft | 470 kts | 245° |
| 2026-05-07 18:52 | -6.31836 | 18.54603 | 37958 ft | 469 kts | 245° |
| 2026-05-07 18:52 | -6.34678 | 18.48696 | 37970 ft | 469 kts | 245° |
| 2026-05-07 18:53 | -6.37542 | 18.42799 | 37957 ft | 469 kts | 244° |
| 2026-05-07 18:53 | -6.40438 | 18.36919 | 37969 ft | 469 kts | 244° |
| 2026-05-07 18:54 | -6.43324 | 18.31036 | 37970 ft | 469 kts | 244° |
| 2026-05-07 18:54 | -6.46189 | 18.25142 | 37963 ft | 469 kts | 245° |
| 2026-05-07 18:55 | -6.49041 | 18.19235 | 37977 ft | 469 kts | 245° |
| 2026-05-07 18:55 | -6.51888 | 18.13340 | 37978 ft | 469 kts | 245° |
| 2026-05-07 18:56 | -6.54738 | 18.07444 | 37964 ft | 469 kts | 245° |
| 2026-05-07 18:56 | -6.57587 | 18.01548 | 37981 ft | 468 kts | 245° |
| 2026-05-07 18:57 | -6.60433 | 17.95657 | 37982 ft | 468 kts | 245° |
| 2026-05-07 18:57 | -6.63275 | 17.89771 | 37966 ft | 468 kts | 245° |
| 2026-05-07 18:58 | -6.66096 | 17.83927 | 37974 ft | 467 kts | 245° |
| 2026-05-07 18:58 | -6.68931 | 17.78052 | 37973 ft | 466 kts | 245° |
| 2026-05-07 18:59 | -6.71764 | 17.72177 | 37962 ft | 466 kts | 245° |
| 2026-05-07 18:59 | -6.74590 | 17.66317 | 37967 ft | 465 kts | 245° |
| 2026-05-07 19:00 | -6.77387 | 17.60453 | 37967 ft | 464 kts | 245° |
| 2026-05-07 19:00 | -6.80177 | 17.54595 | 37956 ft | 464 kts | 245° |
| 2026-05-07 19:01 | -6.82975 | 17.48747 | 37958 ft | 464 kts | 245° |
| 2026-05-07 19:01 | -6.85772 | 17.42900 | 37956 ft | 464 kts | 245° |
| 2026-05-07 19:02 | -6.88573 | 17.37039 | 37958 ft | 464 kts | 245° |
| 2026-05-07 19:02 | -6.91373 | 17.31176 | 37949 ft | 465 kts | 245° |
| 2026-05-07 19:03 | -6.94177 | 17.25302 | 37951 ft | 466 kts | 245° |
| 2026-05-07 19:03 | -6.96988 | 17.19412 | 37956 ft | 467 kts | 245° |
| 2026-05-07 19:04 | -6.99803 | 17.13510 | 37934 ft | 469 kts | 245° |
| 2026-05-07 19:04 | -7.02603 | 17.07637 | 37948 ft | 469 kts | 245° |
| 2026-05-07 19:05 | -7.05428 | 17.01709 | 37940 ft | 470 kts | 245° |
| 2026-05-07 19:05 | -7.08262 | 16.95777 | 37924 ft | 470 kts | 245° |
| 2026-05-07 19:06 | -7.11125 | 16.89851 | 37934 ft | 470 kts | 245° |
| 2026-05-07 19:06 | -7.15413 | 16.80979 | 37931 ft | 470 kts | 245° |
| 2026-05-07 19:07 | -7.18265 | 16.75065 | 37934 ft | 469 kts | 245° |
| 2026-05-07 19:07 | -7.21111 | 16.69160 | 37936 ft | 467 kts | 245° |
| 2026-05-07 19:08 | -7.23925 | 16.63315 | 37929 ft | 466 kts | 245° |
| 2026-05-07 19:08 | -7.26749 | 16.57450 | 37939 ft | 464 kts | 245° |
| 2026-05-07 19:09 | -7.29564 | 16.51602 | 37944 ft | 463 kts | 245° |
| 2026-05-07 19:09 | -7.32366 | 16.45776 | 37936 ft | 462 kts | 245° |
| 2026-05-07 19:10 | -7.35161 | 16.39965 | 37959 ft | 460 kts | 245° |
| 2026-05-07 19:10 | -7.37948 | 16.34168 | 37952 ft | 460 kts | 245° |
| 2026-05-07 19:11 | -7.40735 | 16.28368 | 37952 ft | 460 kts | 245° |
| 2026-05-07 19:11 | -7.43519 | 16.22572 | 37975 ft | 460 kts | 245° |
| 2026-05-07 19:12 | -7.46289 | 16.16802 | 37959 ft | 461 kts | 245° |
| 2026-05-07 19:12 | -7.49084 | 16.10979 | 37979 ft | 463 kts | 245° |
| 2026-05-07 19:13 | -7.51894 | 16.05122 | 37970 ft | 465 kts | 245° |
| 2026-05-07 19:13 | -7.54709 | 15.99251 | 37996 ft | 466 kts | 245° |
| 2026-05-07 19:14 | -7.57533 | 15.93360 | 37982 ft | 468 kts | 245° |
| 2026-05-07 19:14 | -7.60365 | 15.87449 | 37994 ft | 469 kts | 245° |
| 2026-05-07 19:15 | -7.63199 | 15.81532 | 38007 ft | 469 kts | 245° |
| 2026-05-07 19:15 | -7.66033 | 15.75611 | 37993 ft | 469 kts | 245° |
| 2026-05-07 19:16 | -7.68867 | 15.69692 | 38013 ft | 468 kts | 245° |
| 2026-05-07 19:16 | -7.71694 | 15.63781 | 38009 ft | 467 kts | 245° |
| 2026-05-07 19:17 | -7.74495 | 15.57922 | 38009 ft | 466 kts | 245° |
| 2026-05-07 19:17 | -7.77305 | 15.52041 | 38023 ft | 465 kts | 245° |
| 2026-05-07 19:18 | -7.80111 | 15.46166 | 38003 ft | 465 kts | 245° |
| 2026-05-07 19:18 | -7.82908 | 15.40307 | 38030 ft | 463 kts | 245° |
| 2026-05-07 19:19 | -7.85701 | 15.34453 | 37998 ft | 463 kts | 245° |
| 2026-05-07 19:19 | -7.87100 | 15.31520 | 37607 ft | 468 kts | 245° |
| 2026-05-07 19:19 | -7.88518 | 15.28546 | 36923 ft | 470 kts | 245° |
| 2026-05-07 19:20 | -7.89920 | 15.25606 | 36546 ft | 463 kts | 245° |
| 2026-05-07 19:20 | -7.91328 | 15.22653 | 35678 ft | 470 kts | 245° |
| 2026-05-07 19:20 | -7.92736 | 15.19697 | 35253 ft | 465 kts | 245° |
| 2026-05-07 19:20 | -7.94155 | 15.16719 | 34371 ft | 473 kts | 245° |
| 2026-05-07 19:21 | -7.95570 | 15.13749 | 33741 ft | 472 kts | 245° |
| 2026-05-07 19:21 | -7.97004 | 15.10737 | 33045 ft | 474 kts | 245° |
| 2026-05-07 19:21 | -7.98427 | 15.07749 | 32065 ft | 479 kts | 245° |
| 2026-05-07 19:21 | -7.99850 | 15.04720 | 31607 ft | 473 kts | 246° |
| 2026-05-07 19:22 | -8.01174 | 15.01634 | 30568 ft | 482 kts | 248° |
| 2026-05-07 19:22 | -8.02407 | 14.98528 | 29968 ft | 477 kts | 249° |
| 2026-05-07 19:22 | -8.03610 | 14.95414 | 29548 ft | 470 kts | 249° |
| 2026-05-07 19:22 | -8.04793 | 14.92341 | 28676 ft | 471 kts | 249° |
| 2026-05-07 19:23 | -8.05970 | 14.89312 | 28253 ft | 461 kts | 249° |
| 2026-05-07 19:23 | -8.07152 | 14.86296 | 27814 ft | 456 kts | 248° |
| 2026-05-07 19:23 | -8.08325 | 14.83326 | 27012 ft | 458 kts | 248° |
| 2026-05-07 19:23 | -8.09493 | 14.80383 | 26603 ft | 450 kts | 248° |
| 2026-05-07 19:24 | -8.10663 | 14.77443 | 26096 ft | 447 kts | 248° |
| 2026-05-07 19:24 | -8.11820 | 14.74538 | 25426 ft | 448 kts | 248° |
| 2026-05-07 19:24 | -8.12975 | 14.71637 | 24982 ft | 443 kts | 248° |
| 2026-05-07 19:24 | -8.14124 | 14.68749 | 24413 ft | 443 kts | 248° |
| 2026-05-07 19:25 | -8.15253 | 14.65911 | 23873 ft | 441 kts | 248° |
| 2026-05-07 19:25 | -8.16396 | 14.63036 | 23290 ft | 440 kts | 248° |
| 2026-05-07 19:25 | -8.17533 | 14.60174 | 22680 ft | 438 kts | 248° |
| 2026-05-07 19:25 | -8.18663 | 14.57330 | 22141 ft | 435 kts | 248° |
| 2026-05-07 19:26 | -8.19785 | 14.54506 | 21596 ft | 432 kts | 248° |
| 2026-05-07 19:26 | -8.20897 | 14.51704 | 21073 ft | 429 kts | 248° |
| 2026-05-07 19:26 | -8.22003 | 14.48918 | 20545 ft | 426 kts | 248° |
| 2026-05-07 19:26 | -8.23102 | 14.46149 | 20003 ft | 424 kts | 248° |
| 2026-05-07 19:27 | -8.24197 | 14.43391 | 19484 ft | 422 kts | 248° |
| 2026-05-07 19:27 | -8.25287 | 14.40642 | 18943 ft | 420 kts | 248° |
| 2026-05-07 19:27 | -8.26370 | 14.37912 | 18422 ft | 419 kts | 248° |
| 2026-05-07 19:27 | -8.27451 | 14.35187 | 17837 ft | 417 kts | 248° |
| 2026-05-07 19:28 | -8.28183 | 14.33340 | 17463 ft | 415 kts | 248° |
| 2026-05-07 19:28 | -8.29247 | 14.30656 | 16931 ft | 412 kts | 248° |
| 2026-05-07 19:28 | -8.30301 | 14.27996 | 16421 ft | 409 kts | 248° |
| 2026-05-07 19:28 | -8.31360 | 14.25321 | 15902 ft | 406 kts | 248° |
| 2026-05-07 19:29 | -8.32398 | 14.22701 | 15407 ft | 403 kts | 248° |
| 2026-05-07 19:29 | -8.33430 | 14.20095 | 14882 ft | 401 kts | 248° |
| 2026-05-07 19:29 | -8.34470 | 14.17470 | 14380 ft | 399 kts | 248° |
| 2026-05-07 19:29 | -8.35504 | 14.14857 | 13860 ft | 397 kts | 248° |
| 2026-05-07 19:30 | -8.36511 | 14.12312 | 13312 ft | 395 kts | 248° |
| 2026-05-07 19:30 | -8.37538 | 14.09717 | 12791 ft | 392 kts | 248° |
| 2026-05-07 19:30 | -8.38543 | 14.07175 | 12289 ft | 389 kts | 248° |
| 2026-05-07 19:30 | -8.39537 | 14.04663 | 11774 ft | 378 kts | 248° |
| 2026-05-07 19:31 | -8.40497 | 14.02235 | 11306 ft | 366 kts | 248° |
| 2026-05-07 19:31 | -8.41424 | 13.99888 | 10883 ft | 354 kts | 248° |
| 2026-05-07 19:31 | -8.42311 | 13.97643 | 10770 ft | 335 kts | 248° |
| 2026-05-07 19:31 | -8.43156 | 13.95504 | 10583 ft | 320 kts | 248° |
| 2026-05-07 19:32 | -8.43961 | 13.93465 | 10453 ft | 306 kts | 248° |
| 2026-05-07 19:32 | -8.44737 | 13.91503 | 10323 ft | 296 kts | 248° |
| 2026-05-07 19:32 | -8.45492 | 13.89592 | 10207 ft | 292 kts | 247° |
| 2026-05-07 19:32 | -8.46250 | 13.87674 | 10104 ft | 294 kts | 247° |
| 2026-05-07 19:33 | -8.46994 | 13.85790 | 9983 ft | 282 kts | 247° |
| 2026-05-07 19:33 | -8.47713 | 13.83968 | 9684 ft | 276 kts | 247° |
| 2026-05-07 19:33 | -8.48412 | 13.82197 | 9411 ft | 268 kts | 247° |
| 2026-05-07 19:33 | -8.49095 | 13.80468 | 9140 ft | 263 kts | 247° |
| 2026-05-07 19:34 | -8.49771 | 13.78755 | 8882 ft | 263 kts | 248° |
| 2026-05-07 19:34 | -8.50455 | 13.77022 | 8628 ft | 270 kts | 248° |
| 2026-05-07 19:34 | -8.51153 | 13.75254 | 8355 ft | 279 kts | 248° |
| 2026-05-07 19:34 | -8.51875 | 13.73424 | 8060 ft | 279 kts | 248° |
| 2026-05-07 19:35 | -8.52585 | 13.71624 | 7754 ft | 272 kts | 248° |
| 2026-05-07 19:35 | -8.53276 | 13.69873 | 7477 ft | 265 kts | 248° |
| 2026-05-07 19:35 | -8.53950 | 13.68160 | 7209 ft | 259 kts | 248° |
| 2026-05-07 19:35 | -8.54611 | 13.66485 | 6949 ft | 256 kts | 248° |
| 2026-05-07 19:36 | -8.55272 | 13.64807 | 6695 ft | 258 kts | 248° |
| 2026-05-07 19:36 | -8.55945 | 13.63099 | 6439 ft | 266 kts | 248° |
| 2026-05-07 19:36 | -8.56639 | 13.61338 | 6122 ft | 272 kts | 248° |
| 2026-05-07 19:36 | -8.57332 | 13.59579 | 5841 ft | 265 kts | 248° |
| 2026-05-07 19:37 | -8.58000 | 13.57883 | 5711 ft | 254 kts | 248° |
| 2026-05-07 19:37 | -8.58644 | 13.56248 | 5568 ft | 248 kts | 248° |
| 2026-05-07 19:37 | -8.59271 | 13.54654 | 5470 ft | 240 kts | 248° |
| 2026-05-07 19:37 | -8.59879 | 13.53109 | 5356 ft | 234 kts | 248° |
| 2026-05-07 19:38 | -8.60481 | 13.51583 | 5260 ft | 233 kts | 248° |
| 2026-05-07 19:38 | -8.61140 | 13.50109 | 5017 ft | 229 kts | 235° |
| 2026-05-07 19:38 | -8.62165 | 13.48959 | 4951 ft | 210 kts | 224° |
| 2026-05-07 19:38 | -8.63130 | 13.47920 | 4819 ft | 195 kts | 227° |
| 2026-05-07 19:39 | -8.64016 | 13.46928 | 4633 ft | 188 kts | 227° |
| 2026-05-07 19:39 | -8.64903 | 13.45952 | 4519 ft | 190 kts | 226° |
| 2026-05-07 19:39 | -8.65801 | 13.44974 | 4382 ft | 193 kts | 226° |
| 2026-05-07 19:39 | -8.66717 | 13.43982 | 4248 ft | 193 kts | 226° |
| 2026-05-07 19:40 | -8.67630 | 13.42996 | 4112 ft | 191 kts | 226° |
| 2026-05-07 19:40 | -8.68550 | 13.42004 | 3972 ft | 190 kts | 226° |
| 2026-05-07 19:40 | -8.69440 | 13.41043 | 3842 ft | 189 kts | 226° |
| 2026-05-07 19:40 | -8.70351 | 13.40061 | 3714 ft | 188 kts | 226° |
| 2026-05-07 19:41 | -8.71233 | 13.39109 | 3594 ft | 188 kts | 226° |
| 2026-05-07 19:41 | -8.72134 | 13.38136 | 3450 ft | 187 kts | 226° |
| 2026-05-07 19:41 | -8.73021 | 13.37180 | 3342 ft | 186 kts | 226° |
| 2026-05-07 19:41 | -8.73904 | 13.36227 | 3227 ft | 185 kts | 226° |
| 2026-05-07 19:42 | -8.74780 | 13.35282 | 3148 ft | 184 kts | 226° |
| 2026-05-07 19:42 | -8.75658 | 13.34336 | 2904 ft | 184 kts | 226° |
| 2026-05-07 19:42 | -8.76489 | 13.33440 | 2661 ft | 169 kts | 227° |
| 2026-05-07 19:42 | -8.77249 | 13.32620 | 2505 ft | 158 kts | 227° |
| 2026-05-07 19:43 | -8.77995 | 13.31816 | 2290 ft | 153 kts | 227° |
| 2026-05-07 19:43 | -8.78714 | 13.31040 | 2073 ft | 148 kts | 227° |
| 2026-05-07 19:43 | -8.79410 | 13.30289 | 1886 ft | 146 kts | 227° |
| 2026-05-07 19:43 | -8.80100 | 13.29545 | 1707 ft | 144 kts | 227° |
| 2026-05-07 19:44 | -8.80779 | 13.28813 | 1507 ft | 141 kts | 227° |
| 2026-05-07 19:44 | -8.81437 | 13.28103 | 1330 ft | 142 kts | 227° |
| 2026-05-07 19:44 | -8.82111 | 13.27377 | 1144 ft | 142 kts | 227° |
| 2026-05-07 19:44 | -8.82783 | 13.26651 | 990 ft | 141 kts | 225° |
| 2026-05-07 19:45 | -8.83456 | 13.25928 | 816 ft | 143 kts | 226° |
| 2026-05-07 19:45 | -8.84141 | 13.25187 | 656 ft | 145 kts | 225° |
| 2026-05-07 19:45 | -8.84829 | 13.24439 | 437 ft | 146 kts | 226° |
| 2026-05-07 19:45 | -8.85492 | 13.23728 | 258 ft | 128 kts | 226° |
| 2026-05-07 19:46 | -8.85996 | 13.23184 | 240 ft | 51 kts | 227° |
| 2026-05-07 19:46 | -8.86078 | 13.23073 | 240 ft | 18 kts | 271° |
| 2026-05-07 19:46 | -8.86044 | 13.23027 | 240 ft | 0 kts | 319° |